createdAt,value
2022-11-30T00:01:19.765Z,61.72
2022-11-30T00:03:21.793Z,61.84
2022-11-30T00:05:23.568Z,61.79
2022-11-30T00:07:25.219Z,62.01
2022-11-30T00:09:27.027Z,61.92
2022-11-30T00:11:29.847Z,61.92
2022-11-30T00:13:33.781Z,61.87
2022-11-30T00:15:39.302Z,61.95
2022-11-30T00:17:46.009Z,61.73
2022-11-30T00:19:48.011Z,62.03
2022-11-30T00:21:50.981Z,61.86
2022-11-30T00:23:52.543Z,62.12
2022-11-30T00:25:54.241Z,61.94
2022-11-30T00:27:55.816Z,62.12
2022-11-30T00:30:00.466Z,61.71
2022-11-30T00:32:02.046Z,62.19
2022-11-30T00:34:03.564Z,61.75
2022-11-30T00:36:16.544Z,61.89
2022-11-30T00:38:18.191Z,61.87
2022-11-30T00:40:19.896Z,61.80
2022-11-30T00:42:21.511Z,61.95
2022-11-30T00:44:23.143Z,61.96
2022-11-30T00:46:24.914Z,61.88
2022-11-30T00:48:26.730Z,61.96
2022-11-30T00:50:28.467Z,62.15
2022-11-30T00:52:30.486Z,61.99
2022-11-30T00:54:32.000Z,61.78
2022-11-30T00:56:33.839Z,61.82
2022-11-30T00:58:35.530Z,61.79
2022-11-30T01:00:37.317Z,61.54
2022-11-30T01:02:39.008Z,61.76
2022-11-30T01:04:40.888Z,61.50
2022-11-30T01:06:42.473Z,61.64
2022-11-30T01:08:44.266Z,61.79
2022-11-30T01:10:47.645Z,61.72
2022-11-30T01:12:49.791Z,61.54
2022-11-30T01:14:51.865Z,61.57
2022-11-30T01:16:56.205Z,61.56
2022-11-30T01:18:58.408Z,61.57
2022-11-30T01:21:00.155Z,61.83
2022-11-30T01:23:01.750Z,61.78
2022-11-30T01:25:04.114Z,61.50
2022-11-30T01:27:05.950Z,61.50
2022-11-30T01:29:07.656Z,61.47
2022-11-30T01:31:11.271Z,61.80
2022-11-30T01:33:12.961Z,61.19
2022-11-30T01:35:14.783Z,61.48
2022-11-30T01:37:16.337Z,61.54
2022-11-30T01:39:17.981Z,61.46
2022-11-30T01:41:27.570Z,61.27
2022-11-30T01:43:54.176Z,61.41
2022-11-30T01:45:55.959Z,61.71
2022-11-30T01:47:58.483Z,61.75
2022-11-30T01:50:08.590Z,61.76
2022-11-30T01:52:35.482Z,61.61
2022-11-30T01:54:43.520Z,61.53
2022-11-30T01:56:50.325Z,61.89
2022-11-30T01:58:54.075Z,61.42
2022-11-30T02:00:56.560Z,61.71
2022-11-30T02:03:04.832Z,61.54
2022-11-30T02:05:07.629Z,61.73
2022-11-30T02:07:09.969Z,61.88
2022-11-30T02:09:13.187Z,61.39
2022-11-30T02:11:15.987Z,61.60
2022-11-30T02:13:29.684Z,61.48
2022-11-30T02:15:43.657Z,61.65
2022-11-30T02:17:55.232Z,61.56
2022-11-30T02:20:02.824Z,61.43
2022-11-30T02:22:15.425Z,61.38
2022-11-30T02:24:50.817Z,61.56
2022-11-30T02:27:09.735Z,61.32
2022-11-30T02:29:27.061Z,61.66
2022-11-30T02:31:40.543Z,61.30
2022-11-30T02:33:50.503Z,61.66
2022-11-30T02:35:57.463Z,61.61
2022-11-30T02:38:01.436Z,61.70
2022-11-30T02:40:08.678Z,61.35
2022-11-30T02:42:12.918Z,61.22
2022-11-30T02:44:15.880Z,61.70
2022-11-30T02:46:31.420Z,61.81
2022-11-30T02:48:44.566Z,61.86
2022-11-30T02:50:51.446Z,61.51
2022-11-30T02:52:54.309Z,61.69
2022-11-30T02:55:04.697Z,61.36
2022-11-30T02:57:06.708Z,61.65
2022-11-30T02:59:08.566Z,61.64
2022-11-30T03:01:10.447Z,61.38
2022-11-30T03:03:12.108Z,61.73
2022-11-30T03:05:13.723Z,61.67
2022-11-30T03:07:15.412Z,61.52
2022-11-30T03:09:17.094Z,61.44
2022-11-30T03:11:20.985Z,61.61
2022-11-30T03:13:25.860Z,61.25
2022-11-30T03:15:27.778Z,61.71
2022-11-30T03:17:29.532Z,61.46
2022-11-30T03:19:31.149Z,61.29
2022-11-30T03:21:32.795Z,61.71
2022-11-30T03:23:36.093Z,61.42
2022-11-30T03:25:37.638Z,61.33
2022-11-30T03:27:39.263Z,61.38
2022-11-30T03:29:41.130Z,61.35
2022-11-30T03:31:42.995Z,61.62
2022-11-30T03:33:44.641Z,61.28
2022-11-30T03:35:46.191Z,61.71
2022-11-30T03:37:48.301Z,61.33
2022-11-30T03:39:54.946Z,61.29
2022-11-30T03:42:05.656Z,61.58
2022-11-30T03:44:07.224Z,61.67
2022-11-30T03:46:09.329Z,61.33
2022-11-30T03:48:11.040Z,61.50
2022-11-30T03:50:12.766Z,61.79
2022-11-30T03:52:14.419Z,61.74
2022-11-30T03:54:16.038Z,61.77
2022-11-30T03:56:17.859Z,61.25
2022-11-30T03:58:19.743Z,61.56
2022-11-30T04:00:21.803Z,61.27
2022-11-30T04:02:24.004Z,61.15
2022-11-30T04:04:25.692Z,61.08
2022-11-30T04:06:27.283Z,61.20
2022-11-30T04:08:30.331Z,61.21
2022-11-30T04:10:31.966Z,61.45
2022-11-30T04:12:33.698Z,61.59
2022-11-30T04:14:35.251Z,61.22
2022-11-30T04:16:36.877Z,61.56
2022-11-30T04:18:39.160Z,61.27
2022-11-30T04:20:41.157Z,61.55
2022-11-30T04:22:44.051Z,61.69
2022-11-30T04:24:47.343Z,61.21
2022-11-30T04:26:49.105Z,61.15
2022-11-30T04:28:50.776Z,61.12
2022-11-30T04:30:54.388Z,61.44
2022-11-30T04:32:56.097Z,61.49
2022-11-30T04:34:57.623Z,61.58
2022-11-30T04:37:00.570Z,61.38
2022-11-30T04:39:03.423Z,61.31
2022-11-30T04:41:08.830Z,61.45
2022-11-30T04:43:11.958Z,61.27
2022-11-30T04:45:13.724Z,61.13
2022-11-30T04:47:15.503Z,61.21
2022-11-30T04:49:17.324Z,61.37
2022-11-30T04:51:18.926Z,61.21
2022-11-30T04:53:20.540Z,61.62
2022-11-30T04:55:22.246Z,61.54
2022-11-30T04:57:24.371Z,61.52
2022-11-30T04:59:26.248Z,61.46
2022-11-30T05:01:28.273Z,61.48
2022-11-30T05:03:29.884Z,61.53
2022-11-30T05:05:31.552Z,61.42
2022-11-30T05:07:33.379Z,61.47
2022-11-30T05:09:35.285Z,61.25
2022-11-30T05:11:36.902Z,61.39
2022-11-30T05:13:38.632Z,61.58
2022-11-30T05:15:40.353Z,61.40
2022-11-30T05:17:42.584Z,61.12
2022-11-30T05:19:44.361Z,61.14
2022-11-30T05:21:46.089Z,61.29
2022-11-30T05:23:48.841Z,61.10
2022-11-30T05:25:50.452Z,61.28
2022-11-30T05:27:52.027Z,61.61
2022-11-30T05:29:53.603Z,61.12
2022-11-30T05:31:55.449Z,61.41
2022-11-30T05:33:57.148Z,61.25
2022-11-30T05:35:58.728Z,61.36
2022-11-30T05:38:00.551Z,61.33
2022-11-30T05:40:02.314Z,61.51
2022-11-30T05:42:03.947Z,61.50
2022-11-30T05:44:06.400Z,61.42
2022-11-30T05:46:09.286Z,61.24
2022-11-30T05:48:10.930Z,61.32
2022-11-30T05:50:12.750Z,61.58
2022-11-30T05:52:14.402Z,61.06
2022-11-30T05:54:16.301Z,61.21
2022-11-30T05:56:19.918Z,61.46
2022-11-30T05:58:21.465Z,61.53
2022-11-30T06:00:23.414Z,61.48
2022-11-30T06:02:28.387Z,61.20
2022-11-30T06:04:30.372Z,61.43
2022-11-30T06:06:32.577Z,61.19
2022-11-30T06:08:34.179Z,61.29
2022-11-30T06:10:36.743Z,61.15
2022-11-30T06:12:38.292Z,61.11
2022-11-30T06:14:42.912Z,60.91
2022-11-30T06:16:45.653Z,61.10
2022-11-30T06:18:47.163Z,61.24
2022-11-30T06:20:48.827Z,61.06
2022-11-30T06:22:50.495Z,61.18
2022-11-30T06:24:52.224Z,61.40
2022-11-30T06:26:53.918Z,60.77
2022-11-30T06:28:55.524Z,61.09
2022-11-30T06:31:01.382Z,61.15
2022-11-30T06:33:03.153Z,60.97
2022-11-30T06:35:05.177Z,61.11
2022-11-30T06:37:07.021Z,61.19
2022-11-30T06:39:11.456Z,60.87
2022-11-30T06:41:13.087Z,61.20
2022-11-30T06:43:14.841Z,61.00
2022-11-30T06:45:16.848Z,61.35
2022-11-30T06:47:18.658Z,61.05
2022-11-30T06:49:20.443Z,60.99
2022-11-30T06:51:21.905Z,60.92
2022-11-30T06:53:23.640Z,60.77
2022-11-30T06:55:25.344Z,60.89
2022-11-30T06:57:28.429Z,61.26
2022-11-30T06:59:30.375Z,61.35
2022-11-30T07:01:32.350Z,60.89
2022-11-30T07:03:34.130Z,61.35
2022-11-30T07:05:42.154Z,61.08
2022-11-30T07:07:44.185Z,61.35
2022-11-30T07:09:45.987Z,61.42
2022-11-30T07:11:47.655Z,61.51
2022-11-30T07:13:49.317Z,61.17
2022-11-30T07:15:51.070Z,61.28
2022-11-30T07:17:52.713Z,61.49
2022-11-30T07:19:54.295Z,61.32
2022-11-30T07:21:56.286Z,61.19
2022-11-30T07:24:16.549Z,61.11
2022-11-30T07:26:18.881Z,61.04
2022-11-30T07:28:20.461Z,61.46
2022-11-30T07:30:22.082Z,61.83
2022-11-30T07:32:23.773Z,61.29
2022-11-30T07:34:25.851Z,61.54
2022-11-30T07:36:27.963Z,61.16
2022-11-30T07:38:29.656Z,61.39
2022-11-30T07:40:31.696Z,61.23
2022-11-30T07:42:33.858Z,61.32
2022-11-30T07:44:35.339Z,61.03
2022-11-30T07:46:38.738Z,61.37
2022-11-30T07:48:40.892Z,61.01
2022-11-30T07:50:42.534Z,61.08
2022-11-30T07:52:44.213Z,61.37
2022-11-30T07:54:46.296Z,61.20
2022-11-30T07:56:48.370Z,61.20
2022-11-30T07:58:51.698Z,61.52
2022-11-30T08:00:53.467Z,61.46
2022-11-30T08:02:55.208Z,61.56
2022-11-30T08:05:02.829Z,61.20
2022-11-30T08:07:04.575Z,61.65
2022-11-30T08:09:07.170Z,61.75
2022-11-30T08:11:11.154Z,61.60
2022-11-30T08:13:12.739Z,61.33
2022-11-30T08:15:20.199Z,61.22
2022-11-30T08:17:22.314Z,61.67
2022-11-30T08:19:23.984Z,61.20
2022-11-30T08:21:28.146Z,61.39
2022-11-30T08:23:34.621Z,61.26
2022-11-30T08:25:36.292Z,61.46
2022-11-30T08:27:38.076Z,61.17
2022-11-30T08:29:39.888Z,61.49
2022-11-30T08:31:41.579Z,61.40
2022-11-30T08:33:44.085Z,61.46
2022-11-30T08:35:45.674Z,61.55
2022-11-30T08:37:47.437Z,61.21
2022-11-30T08:39:49.017Z,61.23
2022-11-30T08:41:52.160Z,61.35
2022-11-30T08:43:54.699Z,61.33
2022-11-30T08:45:57.423Z,61.49
2022-11-30T08:47:59.412Z,61.25
2022-11-30T08:50:01.561Z,61.72
2022-11-30T08:52:19.163Z,61.48
2022-11-30T08:54:21.161Z,61.24
2022-11-30T08:56:23.915Z,61.57
2022-11-30T08:58:26.420Z,61.30
2022-11-30T09:00:28.192Z,61.36
2022-11-30T09:02:29.971Z,61.60
2022-11-30T09:04:31.592Z,61.53
2022-11-30T09:06:33.380Z,61.35
2022-11-30T09:08:39.548Z,61.63
2022-11-30T09:10:42.606Z,61.50
2022-11-30T09:12:44.336Z,61.03
2022-11-30T09:14:53.905Z,61.29
2022-11-30T09:16:57.910Z,61.14
2022-11-30T09:18:59.595Z,61.43
2022-11-30T09:21:05.584Z,61.43
2022-11-30T09:23:07.236Z,61.37
2022-11-30T09:25:10.700Z,61.46
2022-11-30T09:27:12.490Z,61.30
2022-11-30T09:29:14.094Z,60.89
2022-11-30T09:31:18.230Z,60.92
2022-11-30T09:33:20.573Z,61.27
2022-11-30T09:35:22.447Z,61.11
2022-11-30T09:37:24.307Z,60.82
2022-11-30T09:39:26.061Z,61.13
2022-11-30T09:42:09.169Z,61.31
2022-11-30T09:44:16.588Z,61.09
2022-11-30T09:46:25.542Z,60.95
2022-11-30T09:49:04.422Z,61.17
2022-11-30T09:51:15.161Z,60.95
2022-11-30T09:53:41.865Z,61.02
2022-11-30T09:55:44.496Z,60.85
2022-11-30T09:57:52.505Z,60.98
2022-11-30T09:59:59.823Z,60.81
2022-11-30T10:02:17.089Z,61.00
2022-11-30T10:04:27.535Z,60.70
2022-11-30T10:06:34.305Z,61.12
2022-11-30T10:09:09.553Z,60.91
2022-11-30T10:11:14.124Z,61.04
2022-11-30T10:13:21.575Z,60.92
2022-11-30T10:15:26.368Z,61.09
2022-11-30T10:17:33.791Z,61.13
2022-11-30T10:20:10.760Z,61.12
2022-11-30T10:22:27.718Z,61.04
2022-11-30T10:24:48.488Z,61.13
2022-11-30T10:26:55.307Z,61.01
2022-11-30T10:29:04.709Z,60.96
2022-11-30T10:31:11.330Z,60.52
2022-11-30T10:33:24.149Z,60.99
2022-11-30T10:35:37.501Z,60.94
2022-11-30T10:37:40.256Z,60.78
2022-11-30T10:39:44.463Z,60.82
2022-11-30T10:41:57.476Z,60.96
2022-11-30T10:44:04.997Z,61.07
2022-11-30T10:46:11.340Z,60.61
2022-11-30T10:48:28.693Z,60.73
2022-11-30T10:50:31.714Z,60.63
2022-11-30T10:53:02.414Z,60.46
2022-11-30T10:55:14.948Z,60.84
2022-11-30T10:57:16.641Z,60.69
2022-11-30T10:59:38.973Z,60.71
2022-11-30T11:01:42.608Z,60.62
2022-11-30T11:03:44.320Z,60.61
2022-11-30T11:05:46.453Z,60.53
2022-11-30T11:07:52.212Z,60.50
2022-11-30T11:09:54.187Z,60.89
2022-11-30T11:12:06.148Z,60.63
2022-11-30T11:14:12.363Z,60.56
2022-11-30T11:16:14.275Z,60.92
2022-11-30T11:18:16.018Z,60.45
2022-11-30T11:20:37.064Z,60.72
2022-11-30T11:22:38.854Z,60.43
2022-11-30T11:24:40.753Z,60.52
2022-11-30T11:26:50.648Z,60.54
2022-11-30T11:28:54.836Z,60.73
2022-11-30T11:30:57.577Z,61.07
2022-11-30T11:33:11.588Z,60.45
2022-11-30T11:35:32.419Z,60.36
2022-11-30T11:37:38.228Z,60.41
2022-11-30T11:39:40.212Z,60.88
2022-11-30T11:41:42.004Z,60.61
2022-11-30T11:44:04.333Z,60.28
2022-11-30T11:46:13.640Z,60.21
2022-11-30T11:48:29.215Z,60.55
2022-11-30T11:51:06.025Z,60.56
2022-11-30T11:53:24.969Z,60.19
2022-11-30T11:55:27.210Z,60.62
2022-11-30T11:57:58.823Z,60.54
2022-11-30T12:00:26.742Z,60.35
2022-11-30T12:02:37.944Z,60.07
2022-11-30T12:04:46.766Z,60.03
2022-11-30T12:06:53.723Z,60.12
2022-11-30T12:09:24.304Z,60.09
2022-11-30T12:11:35.315Z,60.55
2022-11-30T12:13:42.713Z,60.30
2022-11-30T12:15:58.882Z,60.45
2022-11-30T12:18:47.845Z,60.25
2022-11-30T12:21:02.818Z,60.12
2022-11-30T12:23:13.884Z,60.42
2022-11-30T12:25:27.216Z,60.29
2022-11-30T12:27:54.774Z,60.21
2022-11-30T12:30:14.194Z,60.24
2022-11-30T12:32:23.468Z,59.93
2022-11-30T12:34:39.633Z,60.47
2022-11-30T12:36:58.478Z,60.22
2022-11-30T12:39:21.781Z,59.97
2022-11-30T12:41:58.663Z,60.00
2022-11-30T12:44:32.640Z,60.07
2022-11-30T12:47:01.114Z,59.88
2022-11-30T12:49:21.939Z,60.38
2022-11-30T12:51:32.779Z,60.39
2022-11-30T12:53:45.667Z,60.30
2022-11-30T12:56:16.380Z,60.13
2022-11-30T12:58:30.872Z,59.88
2022-11-30T13:00:51.436Z,60.03
2022-11-30T13:03:18.748Z,59.89
2022-11-30T13:05:42.674Z,59.74
2022-11-30T13:07:56.552Z,59.88
2022-11-30T13:10:02.854Z,60.06
2022-11-30T13:12:14.892Z,60.00
2022-11-30T13:14:22.486Z,60.19
2022-11-30T13:16:25.580Z,59.99
2022-11-30T13:18:28.422Z,60.05
2022-11-30T13:20:52.072Z,60.05
2022-11-30T13:23:00.863Z,59.88
2022-11-30T13:28:03.485Z,59.63
2022-11-30T13:30:19.361Z,59.64
2022-11-30T13:32:56.066Z,59.57
2022-11-30T13:34:43.846Z,59.69
2022-11-30T13:36:45.701Z,59.51
2022-11-30T13:38:48.113Z,59.72
2022-11-30T13:41:01.896Z,59.91
2022-11-30T13:43:03.991Z,59.65
2022-11-30T13:45:11.628Z,59.44
2022-11-30T13:47:34.759Z,59.27
2022-11-30T13:49:37.096Z,59.60
2022-11-30T13:51:42.321Z,59.19
2022-11-30T13:53:44.161Z,59.53
2022-11-30T13:55:49.253Z,59.26
2022-11-30T13:57:53.774Z,59.31
2022-11-30T14:00:05.045Z,59.10
2022-11-30T14:02:36.618Z,58.96
2022-11-30T14:04:46.188Z,59.11
2022-11-30T14:06:59.554Z,59.34
2022-11-30T14:09:03.805Z,59.45
2022-11-30T14:11:38.529Z,59.14
2022-11-30T14:13:40.073Z,59.25
2022-11-30T14:15:44.443Z,59.24
2022-11-30T14:17:46.701Z,59.50
2022-11-30T14:19:52.319Z,59.05
2022-11-30T14:21:54.278Z,59.06
2022-11-30T14:24:18.151Z,59.20
2022-11-30T14:26:28.925Z,59.05
2022-11-30T14:28:39.894Z,58.91
2022-11-30T14:30:43.609Z,59.31
2022-11-30T14:32:51.074Z,59.49
2022-11-30T14:35:01.067Z,59.17
2022-11-30T14:37:14.036Z,59.19
2022-11-30T14:39:27.446Z,59.13
2022-11-30T14:41:30.995Z,59.04
2022-11-30T14:43:32.942Z,58.92
2022-11-30T14:45:35.256Z,58.96
2022-11-30T14:47:37.150Z,59.14
2022-11-30T14:49:46.741Z,59.24
2022-11-30T14:52:13.841Z,59.09
2022-11-30T14:54:36.573Z,58.73
2022-11-30T14:56:47.304Z,59.14
2022-11-30T14:59:18.152Z,58.99
2022-11-30T15:01:23.941Z,58.96
2022-11-30T15:03:31.239Z,58.74
2022-11-30T15:05:35.493Z,59.20
2022-11-30T15:07:37.595Z,59.15
2022-11-30T15:09:43.954Z,59.00
2022-11-30T15:11:48.000Z,59.12
2022-11-30T15:13:53.964Z,59.29
2022-11-30T15:15:56.406Z,58.77
2022-11-30T15:18:16.325Z,59.11
2022-11-30T15:20:23.123Z,58.97
2022-11-30T15:22:25.041Z,58.71
2022-11-30T15:24:29.344Z,58.60
2022-11-30T15:26:37.607Z,58.83
2022-11-30T15:28:44.267Z,58.87
2022-11-30T15:30:49.172Z,58.68
2022-11-30T15:32:52.617Z,58.81
2022-11-30T15:34:57.720Z,58.79
2022-11-30T15:37:00.311Z,58.53
2022-11-30T15:39:04.387Z,58.83
2022-11-30T15:41:17.652Z,58.50
2022-11-30T15:43:22.803Z,58.69
2022-11-30T15:45:36.361Z,58.65
2022-11-30T15:47:38.893Z,58.52
2022-11-30T15:49:51.687Z,58.77
2022-11-30T15:52:11.530Z,58.38
2022-11-30T15:54:19.495Z,58.50
2022-11-30T15:56:26.515Z,58.56
2022-11-30T15:59:19.562Z,58.70
2022-11-30T16:01:25.146Z,58.74
2022-11-30T16:03:27.983Z,58.83
2022-11-30T16:05:35.910Z,58.58
2022-11-30T16:08:03.783Z,58.29
2022-11-30T16:10:17.011Z,58.69
2022-11-30T16:12:30.336Z,58.44
2022-11-30T16:14:32.259Z,58.46
2022-11-30T16:16:34.260Z,58.29
2022-11-30T16:18:36.024Z,58.70
2022-11-30T16:20:38.053Z,58.42
2022-11-30T16:22:42.422Z,58.32
2022-11-30T16:24:44.182Z,58.61
2022-11-30T16:26:53.098Z,58.65
2022-11-30T16:28:55.536Z,58.79
2022-11-30T16:31:00.466Z,58.64
2022-11-30T16:33:02.306Z,58.67
2022-11-30T16:35:14.660Z,58.30
2022-11-30T16:37:16.835Z,58.26
2022-11-30T16:39:18.534Z,58.67
2022-11-30T16:41:25.502Z,58.70
2022-11-30T16:43:27.302Z,58.39
2022-11-30T16:45:35.946Z,58.56
2022-11-30T16:47:38.300Z,58.24
2022-11-30T16:49:39.981Z,58.19
2022-11-30T16:51:45.330Z,58.30
2022-11-30T16:53:47.520Z,58.40
2022-11-30T16:55:49.200Z,58.38
2022-11-30T16:57:52.169Z,58.54
2022-11-30T16:59:54.289Z,58.28
2022-11-30T17:01:56.145Z,58.06
2022-11-30T17:03:58.856Z,58.14
2022-11-30T17:06:00.633Z,58.00
2022-11-30T17:08:03.012Z,58.01
2022-11-30T17:10:09.173Z,58.26
2022-11-30T17:12:11.197Z,58.21
2022-11-30T17:14:14.471Z,58.11
2022-11-30T17:16:16.197Z,58.05
2022-11-30T17:18:18.028Z,57.85
2022-11-30T17:20:19.810Z,58.21
2022-11-30T17:22:24.441Z,58.27
2022-11-30T17:24:26.229Z,57.92
2022-11-30T17:26:27.858Z,57.81
2022-11-30T17:28:29.700Z,57.75
2022-11-30T17:30:34.675Z,57.97
2022-11-30T17:32:37.003Z,58.07
2022-11-30T17:34:38.954Z,57.84
2022-11-30T17:36:40.566Z,57.91
2022-11-30T17:38:44.325Z,57.77
2022-11-30T17:40:46.322Z,57.67
2022-11-30T17:42:49.680Z,57.88
2022-11-30T17:44:51.495Z,57.80
2022-11-30T17:46:53.232Z,57.67
2022-11-30T17:48:55.944Z,57.83
2022-11-30T17:50:57.870Z,57.62
2022-11-30T17:53:00.093Z,57.69
2022-11-30T17:55:01.989Z,57.85
2022-11-30T17:57:04.526Z,57.74
2022-11-30T17:59:06.164Z,57.77
2022-11-30T18:01:23.489Z,57.57
2022-11-30T18:03:25.354Z,57.89
2022-11-30T18:05:27.176Z,57.61
2022-11-30T18:07:29.066Z,57.84
2022-11-30T18:09:30.779Z,57.89
2022-11-30T18:11:32.231Z,57.84
2022-11-30T18:13:33.933Z,57.61
2022-11-30T18:15:35.470Z,57.78
2022-11-30T18:17:37.115Z,57.58
2022-11-30T18:19:38.671Z,57.87
2022-11-30T18:21:42.237Z,57.49
2022-11-30T18:23:43.891Z,57.70
2022-11-30T18:25:45.406Z,57.81
2022-11-30T18:27:47.118Z,57.87
2022-11-30T18:29:49.120Z,57.64
2022-11-30T18:31:51.772Z,57.76
2022-11-30T18:33:55.565Z,57.51
2022-11-30T18:36:02.181Z,57.56
2022-11-30T18:38:04.015Z,57.41
2022-11-30T18:40:06.333Z,57.70
2022-11-30T18:42:08.040Z,57.56
2022-11-30T18:44:10.403Z,57.41
2022-11-30T18:46:13.372Z,57.69
2022-11-30T18:48:15.342Z,57.70
2022-11-30T18:50:17.038Z,57.79
2022-11-30T18:52:18.764Z,57.49
2022-11-30T18:54:20.547Z,57.59
2022-11-30T18:56:22.299Z,57.34
2022-11-30T18:58:29.267Z,57.77
2022-11-30T19:00:31.194Z,57.74
2022-11-30T19:02:34.398Z,57.68
2022-11-30T19:04:37.292Z,57.50
2022-11-30T19:06:41.054Z,57.69
2022-11-30T19:08:43.041Z,57.53
2022-11-30T19:10:47.963Z,57.81
2022-11-30T19:12:49.799Z,57.51
2022-11-30T19:14:51.462Z,57.45
2022-11-30T19:16:53.163Z,57.59
2022-11-30T19:18:58.591Z,57.67
2022-11-30T19:21:00.767Z,57.45
2022-11-30T19:23:02.527Z,57.44
2022-11-30T19:25:04.672Z,57.42
2022-11-30T19:27:06.724Z,57.63
2022-11-30T19:29:13.114Z,57.70
2022-11-30T19:31:17.286Z,57.55
2022-11-30T19:33:18.995Z,57.51
2022-11-30T19:35:23.005Z,57.54
2022-11-30T19:37:24.681Z,57.59
2022-11-30T19:39:26.409Z,57.38
2022-11-30T19:41:29.195Z,57.64
2022-11-30T19:43:36.758Z,57.65
2022-11-30T19:45:38.414Z,57.96
2022-11-30T19:47:40.068Z,57.60
2022-11-30T19:49:41.773Z,57.76
2022-11-30T19:51:43.358Z,57.64
2022-11-30T19:53:45.815Z,57.37
2022-11-30T19:55:47.709Z,57.39
2022-11-30T19:57:51.681Z,57.48
2022-11-30T19:59:53.836Z,57.99
2022-11-30T20:01:55.531Z,57.61
2022-11-30T20:03:58.083Z,57.35
2022-11-30T20:05:59.856Z,57.71
2022-11-30T20:08:01.518Z,57.58
2022-11-30T20:10:03.730Z,57.47
2022-11-30T20:12:05.639Z,57.82
2022-11-30T20:14:07.465Z,57.48
2022-11-30T20:16:11.977Z,57.58
2022-11-30T20:18:13.945Z,57.15
2022-11-30T20:20:15.817Z,57.15
2022-11-30T20:22:17.369Z,57.22
2022-11-30T20:24:19.211Z,57.10
2022-11-30T20:26:23.865Z,57.09
2022-11-30T20:28:25.597Z,57.20
2022-11-30T20:30:27.331Z,57.49
2022-11-30T20:32:29.128Z,57.25
2022-11-30T20:34:34.354Z,57.22
2022-11-30T20:36:37.948Z,57.13
2022-11-30T20:38:40.303Z,57.36
2022-11-30T20:40:49.120Z,57.20
2022-11-30T20:42:52.626Z,57.11
2022-11-30T20:44:55.516Z,57.40
2022-11-30T20:46:56.963Z,56.71
2022-11-30T20:48:59.980Z,56.96
2022-11-30T20:51:29.416Z,56.99
2022-11-30T20:53:30.930Z,57.32
2022-11-30T20:55:32.810Z,57.25
2022-11-30T20:57:34.434Z,57.25
2022-11-30T20:59:35.990Z,57.04
2022-11-30T21:01:41.002Z,57.19
2022-11-30T21:03:43.380Z,57.20
2022-11-30T21:05:45.644Z,57.01
2022-11-30T21:07:48.545Z,57.21
2022-11-30T21:09:50.163Z,56.93
2022-11-30T21:11:51.878Z,57.09
2022-11-30T21:13:53.739Z,56.95
2022-11-30T21:15:58.037Z,57.19
2022-11-30T21:17:59.901Z,57.07
2022-11-30T21:20:02.023Z,57.08
2022-11-30T21:22:04.450Z,56.94
2022-11-30T21:24:08.649Z,56.87
2022-11-30T21:26:22.309Z,56.83
2022-11-30T21:28:23.938Z,57.37
2022-11-30T21:30:27.505Z,56.88
2022-11-30T21:32:29.002Z,57.25
2022-11-30T21:34:30.812Z,56.86
2022-11-30T21:36:32.522Z,57.04
2022-11-30T21:38:34.907Z,56.79
2022-11-30T21:40:36.486Z,57.08
2022-11-30T21:42:38.210Z,57.14
2022-11-30T21:44:39.776Z,57.05
2022-11-30T21:46:42.625Z,56.94
2022-11-30T21:48:46.179Z,56.95
2022-11-30T21:50:47.897Z,56.87
2022-11-30T21:52:49.541Z,56.94
2022-11-30T21:54:53.515Z,57.03
2022-11-30T21:56:58.388Z,57.06
2022-11-30T21:59:00.246Z,57.10
2022-11-30T22:01:02.825Z,56.84
2022-11-30T22:03:04.565Z,57.15
2022-11-30T22:05:06.555Z,56.86
2022-11-30T22:07:15.975Z,57.11
2022-11-30T22:09:18.019Z,57.18
2022-11-30T22:11:22.394Z,57.13
2022-11-30T22:13:24.145Z,56.99
2022-11-30T22:15:25.965Z,57.10
2022-11-30T22:17:27.660Z,56.97
2022-11-30T22:19:29.244Z,56.74
2022-11-30T22:21:31.888Z,56.94
2022-11-30T22:23:35.269Z,56.83
2022-11-30T22:25:36.981Z,57.06
2022-11-30T22:27:38.442Z,56.98
2022-11-30T22:29:40.243Z,56.76
2022-11-30T22:31:44.480Z,57.13
2022-11-30T22:33:46.863Z,57.03
2022-11-30T22:35:48.545Z,56.92
2022-11-30T22:37:50.333Z,56.87
2022-11-30T22:39:52.303Z,56.81
2022-11-30T22:41:56.266Z,56.85
2022-11-30T22:43:58.813Z,56.96
2022-11-30T22:46:04.902Z,56.89
2022-11-30T22:48:06.531Z,56.84
2022-11-30T22:50:11.653Z,56.97
2022-11-30T22:52:13.317Z,57.18
2022-11-30T22:54:17.820Z,56.89
2022-11-30T22:56:25.483Z,56.66
2022-11-30T22:58:27.409Z,56.94
2022-11-30T23:00:29.456Z,56.65
2022-11-30T23:02:31.461Z,56.74
2022-11-30T23:04:33.449Z,56.70
2022-11-30T23:06:37.002Z,56.68
2022-11-30T23:08:39.120Z,57.00
2022-11-30T23:10:41.068Z,56.85
2022-11-30T23:12:58.885Z,56.91
2022-11-30T23:15:00.931Z,56.88
2022-11-30T23:17:02.577Z,57.17
2022-11-30T23:19:05.401Z,57.04
2022-11-30T23:21:10.099Z,57.02
2022-11-30T23:23:11.744Z,56.89
2022-11-30T23:25:13.177Z,57.01
2022-11-30T23:27:15.013Z,56.98
2022-11-30T23:29:17.968Z,57.07
2022-11-30T23:31:34.678Z,57.11
2022-11-30T23:33:38.999Z,57.04
2022-11-30T23:35:44.153Z,57.08
2022-11-30T23:37:45.868Z,57.15
2022-11-30T23:39:47.825Z,56.90
2022-11-30T23:41:50.231Z,57.02
2022-11-30T23:43:52.799Z,57.05
2022-11-30T23:45:54.293Z,56.82
2022-11-30T23:47:55.789Z,56.87
2022-11-30T23:49:57.496Z,57.00
2022-11-30T23:51:59.133Z,57.01
2022-11-30T23:54:00.968Z,56.75
2022-11-30T23:56:05.863Z,57.03
2022-11-30T23:58:07.541Z,56.75
